Time;durP1;ratioP1;P1;durP2;ratioP2;P2;SDS_P1;SDS_P2;PMS_P1;PMS_P2;Temp;Humidity;BMP_temperature;BMP_pressure;BME280_temperature;BME280_humidity;BME280_pressure;Samples;Min_cycle;Max_cycle;Signal;HPM_P1;HPM_P2
2021/05/03 00:02:01;;;;;;;3.80;3.55;;;;;;;;;;5073581;28;20192;-65
2021/05/03 00:04:27;;;;;;;4.78;4.07;;;;;;;;;;5072801;28;20717;-65
2021/05/03 00:06:54;;;;;;;4.00;3.60;;;;;;;;;;5073591;28;20204;-65
2021/05/03 00:09:21;;;;;;;3.47;3.10;;;;;;;;;;5073608;28;20200;-65
2021/05/03 00:11:48;;;;;;;3.53;3.10;;;;;;;;;;5071972;28;20208;-65
2021/05/03 00:14:15;;;;;;;5.25;4.75;;;;;;;;;;5073524;28;20565;-65
2021/05/03 00:16:42;;;;;;;6.00;4.43;;;;;;;;;;5073574;28;20219;-65
2021/05/03 00:19:08;;;;;;;3.75;3.47;;;;;;;;;;5073305;28;20291;-65
2021/05/03 00:21:35;;;;;;;3.60;3.30;;;;;;;;;;5073537;28;20204;-65
2021/05/03 00:24:02;;;;;;;3.75;3.45;;;;;;;;;;5073508;28;20214;-65
2021/05/03 00:26:28;;;;;;;4.93;3.88;;;;;;;;;;5073751;28;20211;-65
2021/05/03 00:28:55;;;;;;;3.80;3.50;;;;;;;;;;5072164;28;20287;-65
2021/05/03 00:31:22;;;;;;;4.70;3.40;;;;;;;;;;5073614;28;20208;-65
2021/05/03 00:33:48;;;;;;;4.10;3.50;;;;;;;;;;5073609;28;20290;-65
2021/05/03 00:36:15;;;;;;;3.50;3.20;;;;;;;;;;5073349;28;20205;-65
2021/05/03 00:38:42;;;;;;;6.43;3.50;;;;;;;;;;5073345;28;20657;-65
2021/05/03 00:41:08;;;;;;;4.32;4.03;;;;;;;;;;5073064;28;20216;-65
2021/05/03 00:43:35;;;;;;;4.18;3.88;;;;;;;;;;5073010;28;20196;-65
2021/05/03 00:46:02;;;;;;;3.92;3.65;;;;;;;;;;5072916;28;20188;-67
2021/05/03 00:48:29;;;;;;;4.65;3.50;;;;;;;;;;5072947;28;20648;-65
2021/05/03 00:50:55;;;;;;;9.88;3.70;;;;;;;;;;5072928;28;20286;-65
2021/05/03 00:53:22;;;;;;;4.13;3.72;;;;;;;;;;5072653;28;20228;-65
2021/05/03 00:55:49;;;;;;;3.72;3.20;;;;;;;;;;5073141;28;20212;-65
2021/05/03 00:58:16;;;;;;;4.30;3.55;;;;;;;;;;5072816;28;20215;-65
2021/05/03 01:00:43;;;;;;;5.05;3.75;;;;;;;;;;5073065;28;20200;-65
2021/05/03 01:03:10;;;;;;;3.88;3.55;;;;;;;;;;5073070;28;20564;-65
2021/05/03 01:05:36;;;;;;;6.10;4.03;;;;;;;;;;5072890;28;20204;-65
2021/05/03 01:08:04;;;;;;;3.85;3.55;;;;;;;;;;5072763;28;20200;-65
2021/05/03 01:10:31;;;;;;;3.40;3.10;;;;;;;;;;5072862;28;20206;-65
2021/05/03 01:12:58;;;;;;;6.18;4.40;;;;;;;;;;5072690;28;20216;-65
2021/05/03 01:15:25;;;;;;;3.50;3.30;;;;;;;;;;5074614;28;20192;-65
2021/05/03 01:17:55;;;;;;;5.07;3.47;;;;;;;;;;5076440;28;20219;-65
2021/05/03 01:20:22;;;;;;;4.78;3.58;;;;;;;;;;5076567;28;20200;-65
2021/05/03 01:22:51;;;;;;;4.57;3.40;;;;;;;;;;5076275;28;20246;-65
2021/05/03 01:25:18;;;;;;;4.00;3.70;;;;;;;;;;5075052;28;20211;-65
2021/05/03 01:27:45;;;;;;;4.28;3.88;;;;;;;;;;5076075;28;20230;-65
2021/05/03 01:30:12;;;;;;;3.80;3.50;;;;;;;;;;5075923;28;20200;-65
2021/05/03 01:32:40;;;;;;;3.75;3.53;;;;;;;;;;5076120;28;20195;-65
2021/05/03 01:35:07;;;;;;;3.70;3.40;;;;;;;;;;5075935;28;20203;-65
2021/05/03 01:37:34;;;;;;;4.00;3.60;;;;;;;;;;5075804;28;20228;-65
2021/05/03 01:40:01;;;;;;;4.25;3.40;;;;;;;;;;5075931;28;20220;-65
2021/05/03 01:42:27;;;;;;;4.85;4.15;;;;;;;;;;5076058;28;20195;-65
2021/05/03 01:45:01;;;;;;;4.32;3.50;;;;;;;;;;5076922;28;20249;-65
2021/05/03 01:47:28;;;;;;;4.28;3.75;;;;;;;;;;5076114;28;20275;-66
2021/05/03 01:49:55;;;;;;;4.25;3.85;;;;;;;;;;5075849;28;20215;-65
2021/05/03 01:52:22;;;;;;;3.88;3.30;;;;;;;;;;5075541;28;20239;-65
2021/05/03 01:54:49;;;;;;;4.70;4.25;;;;;;;;;;5075773;28;20196;-65
2021/05/03 01:57:17;;;;;;;7.10;4.40;;;;;;;;;;5074291;28;20228;-65
2021/05/03 01:59:43;;;;;;;4.40;4.00;;;;;;;;;;5075625;28;20201;-65
2021/05/03 02:02:10;;;;;;;3.92;3.55;;;;;;;;;;5075536;28;20305;-65
2021/05/03 02:04:37;;;;;;;4.25;3.95;;;;;;;;;;5075433;28;20200;-65
2021/05/03 02:07:03;;;;;;;4.75;3.60;;;;;;;;;;5075425;28;20588;-66
2021/05/03 02:09:30;;;;;;;3.80;3.53;;;;;;;;;;5075510;28;20191;-66
2021/05/03 02:11:57;;;;;;;5.03;4.53;;;;;;;;;;5075214;28;20214;-65
2021/05/03 02:14:24;;;;;;;4.30;3.58;;;;;;;;;;5075552;28;20208;-65
2021/05/03 02:16:50;;;;;;;3.88;3.60;;;;;;;;;;5075239;28;20212;-65
2021/05/03 02:19:17;;;;;;;4.03;3.70;;;;;;;;;;5075363;28;20635;-65
2021/05/03 02:21:44;;;;;;;6.05;4.15;;;;;;;;;;5075311;28;20705;-65
2021/05/03 02:24:10;;;;;;;4.40;4.05;;;;;;;;;;5075307;28;20627;-65
2021/05/03 02:26:37;;;;;;;8.55;7.53;;;;;;;;;;5074279;28;20196;-66
2021/05/03 02:29:04;;;;;;;6.05;5.65;;;;;;;;;;5074929;28;20188;-65
2021/05/03 02:31:30;;;;;;;9.65;8.75;;;;;;;;;;5075248;28;20196;-65
2021/05/03 02:33:57;;;;;;;23.23;21.23;;;;;;;;;;5075306;28;20212;-65
2021/05/03 02:36:24;;;;;;;11.00;10.05;;;;;;;;;;5074941;28;20207;-65
2021/05/03 02:38:51;;;;;;;6.47;5.45;;;;;;;;;;5073464;28;20278;-65
2021/05/03 02:41:17;;;;;;;6.53;5.90;;;;;;;;;;5075081;28;20239;-66
2021/05/03 02:43:43;;;;;;;6.22;5.63;;;;;;;;;;5074963;28;20624;-65
2021/05/03 02:46:11;;;;;;;5.13;4.63;;;;;;;;;;5074680;28;20198;-65
2021/05/03 02:48:37;;;;;;;10.18;9.18;;;;;;;;;;5074828;28;20208;-65
2021/05/03 02:51:04;;;;;;;10.57;9.27;;;;;;;;;;5074615;28;20180;-65
2021/05/03 02:53:31;;;;;;;6.97;6.38;;;;;;;;;;5074292;28;20228;-65
2021/05/03 02:55:58;;;;;;;6.00;4.90;;;;;;;;;;5074698;28;20279;-65
2021/05/03 02:58:24;;;;;;;5.60;5.10;;;;;;;;;;5074275;28;20671;-65
2021/05/03 03:00:51;;;;;;;7.10;6.18;;;;;;;;;;5074538;28;20204;-65
2021/05/03 03:03:18;;;;;;;6.50;5.80;;;;;;;;;;5073920;28;20196;-65
2021/05/03 03:05:44;;;;;;;7.25;6.50;;;;;;;;;;5074135;28;20572;-65
2021/05/03 03:08:11;;;;;;;14.13;7.35;;;;;;;;;;5073921;28;20206;-66
2021/05/03 03:10:38;;;;;;;13.02;7.75;;;;;;;;;;5060607;28;20200;-65
2021/05/03 03:13:05;;;;;;;9.68;7.10;;;;;;;;;;5073713;28;20215;-65
2021/05/03 03:15:35;;;;;;;9.18;7.55;;;;;;;;;;5072590;28;20212;-65
2021/05/03 03:18:02;;;;;;;9.52;7.38;;;;;;;;;;5074413;28;20228;-65
2021/05/03 03:20:29;;;;;;;7.05;6.35;;;;;;;;;;5074217;28;20192;-65
2021/05/03 03:22:56;;;;;;;7.35;6.55;;;;;;;;;;5074453;28;20658;-65
2021/05/03 03:25:23;;;;;;;7.07;6.38;;;;;;;;;;5073880;28;20246;-65
2021/05/03 03:27:50;;;;;;;10.80;6.65;;;;;;;;;;5074171;28;20203;-65
2021/05/03 03:30:17;;;;;;;8.00;6.45;;;;;;;;;;5073626;28;20192;-65
2021/05/03 03:32:44;;;;;;;7.38;6.15;;;;;;;;;;5074056;28;20196;-66
2021/05/03 03:35:15;;;;;;;8.02;6.30;;;;;;;;;;5073674;28;20199;-65
2021/05/03 03:37:42;;;;;;;6.85;6.15;;;;;;;;;;5073837;28;20230;-65
2021/05/03 03:40:10;;;;;;;8.95;6.60;;;;;;;;;;5073574;28;20214;-65
2021/05/03 03:42:37;;;;;;;7.68;6.88;;;;;;;;;;5073563;28;20200;-65
2021/05/03 03:45:05;;;;;;;9.55;6.93;;;;;;;;;;5073635;28;20198;-65
2021/05/03 03:47:32;;;;;;;7.07;6.38;;;;;;;;;;5073387;28;20215;-65
2021/05/03 03:49:58;;;;;;;8.95;6.50;;;;;;;;;;5073741;28;20206;-63
2021/05/03 03:52:25;;;;;;;8.23;7.13;;;;;;;;;;5072060;28;20238;-63
2021/05/03 03:54:52;;;;;;;8.65;7.53;;;;;;;;;;5073834;28;20207;-63
2021/05/03 03:57:19;;;;;;;12.93;6.15;;;;;;;;;;5072075;28;20234;-63
2021/05/03 03:59:50;;;;;;;10.00;7.00;;;;;;;;;;5073434;28;20218;-63
2021/05/03 04:02:16;;;;;;;11.15;8.02;;;;;;;;;;5073545;28;20210;-63
2021/05/03 04:04:46;;;;;;;10.57;6.43;;;;;;;;;;5073777;28;20682;-63
2021/05/03 04:07:20;;;;;;;10.85;7.90;;;;;;;;;;5073027;28;20227;-63
2021/05/03 04:12:34;;;;;;;8.82;7.18;;;;;;;;;;5073071;28;20199;-63
2021/05/03 04:26:02;;;;;;;9.45;8.45;;;;;;;;;;5073002;28;20172;-62
2021/05/03 04:28:28;;;;;;;10.50;8.18;;;;;;;;;;5072930;28;20195;-63
2021/05/03 04:30:55;;;;;;;10.43;7.30;;;;;;;;;;5072998;28;20200;-63
2021/05/03 04:33:23;;;;;;;11.55;8.50;;;;;;;;;;5072978;28;20188;-63
2021/05/03 04:35:50;;;;;;;9.45;7.93;;;;;;;;;;5073381;28;20200;-63
2021/05/03 04:38:16;;;;;;;12.32;8.73;;;;;;;;;;5073297;28;20223;-63
2021/05/03 04:40:46;;;;;;;11.63;8.57;;;;;;;;;;5071917;28;20689;-63
2021/05/03 04:43:15;;;;;;;10.73;9.15;;;;;;;;;;5073481;28;20230;-62
2021/05/03 04:45:42;;;;;;;12.82;10.20;;;;;;;;;;5074248;28;20214;-66
2021/05/03 04:48:08;;;;;;;13.27;11.05;;;;;;;;;;5073965;28;20674;-63
2021/05/03 04:50:35;;;;;;;13.52;11.00;;;;;;;;;;5075163;28;20716;-63
2021/05/03 04:53:02;;;;;;;15.25;10.85;;;;;;;;;;5077042;28;20228;-63
2021/05/03 04:55:29;;;;;;;10.88;9.30;;;;;;;;;;5076770;28;20670;-62
2021/05/03 04:57:56;;;;;;;14.35;12.35;;;;;;;;;;5058939;28;20228;-63
2021/05/03 05:00:23;;;;;;;13.95;11.20;;;;;;;;;;5076609;28;20183;-63
2021/05/03 05:02:49;;;;;;;17.25;13.48;;;;;;;;;;5075043;28;20369;-63
2021/05/03 05:05:16;;;;;;;12.52;10.02;;;;;;;;;;5076498;28;20762;-63
2021/05/03 05:07:43;;;;;;;16.77;10.63;;;;;;;;;;5076441;28;20191;-63
2021/05/03 05:10:10;;;;;;;11.57;9.30;;;;;;;;;;5076837;28;20208;-64
2021/05/03 05:12:37;;;;;;;14.40;10.20;;;;;;;;;;5076374;28;20192;-63
2021/05/03 05:15:07;;;;;;;12.88;9.70;;;;;;;;;;5074951;28;20215;-63
2021/05/03 05:17:36;;;;;;;10.63;9.55;;;;;;;;;;5076876;28;20330;-63
2021/05/03 05:20:03;;;;;;;13.55;10.43;;;;;;;;;;5076906;28;20199;-63
2021/05/03 05:22:30;;;;;;;12.50;10.70;;;;;;;;;;5076923;28;20200;-63
2021/05/03 05:24:57;;;;;;;14.75;12.20;;;;;;;;;;5074858;28;20659;-63
2021/05/03 05:27:23;;;;;;;17.42;11.80;;;;;;;;;;5076180;28;20196;-63
2021/05/03 05:29:50;;;;;;;16.02;10.60;;;;;;;;;;5075916;28;20198;-62
2021/05/03 05:32:17;;;;;;;14.00;9.85;;;;;;;;;;5076024;28;20192;-63
2021/05/03 05:34:43;;;;;;;13.48;10.57;;;;;;;;;;5076157;28;20199;-63
2021/05/03 05:37:11;;;;;;;16.05;11.68;;;;;;;;;;5075961;28;20188;-63
2021/05/03 05:39:38;;;;;;;14.13;10.80;;;;;;;;;;5076029;28;20207;-65
2021/05/03 05:42:05;;;;;;;15.70;12.73;;;;;;;;;;5075613;28;20271;-62
2021/05/03 05:44:32;;;;;;;12.45;11.15;;;;;;;;;;5076073;28;20283;-62
2021/05/03 05:46:58;;;;;;;13.27;10.40;;;;;;;;;;5074725;28;20188;-63
2021/05/03 05:49:26;;;;;;;13.52;11.52;;;;;;;;;;5075888;28;20196;-62
2021/05/03 05:51:53;;;;;;;17.92;9.70;;;;;;;;;;5075660;28;20571;-63
2021/05/03 05:54:20;;;;;;;11.68;10.20;;;;;;;;;;5075957;28;20180;-63
2021/05/03 05:56:47;;;;;;;13.50;9.27;;;;;;;;;;5075709;28;20188;-62
2021/05/03 05:59:14;;;;;;;12.40;9.15;;;;;;;;;;5075797;28;20288;-63
2021/05/03 06:01:42;;;;;;;11.82;9.73;;;;;;;;;;5074329;28;20291;-62
2021/05/03 06:04:08;;;;;;;11.80;10.30;;;;;;;;;;5075743;28;20200;-62
2021/05/03 06:06:35;;;;;;;9.88;8.88;;;;;;;;;;5075546;28;20225;-63
2021/05/03 06:09:02;;;;;;;11.50;8.85;;;;;;;;;;5075747;28;20235;-62
2021/05/03 06:11:29;;;;;;;11.80;10.25;;;;;;;;;;5075749;28;20207;-64
2021/05/03 06:13:55;;;;;;;9.60;8.60;;;;;;;;;;5075530;28;20195;-63
2021/05/03 06:16:22;;;;;;;11.73;8.95;;;;;;;;;;5075202;28;20188;-64
2021/05/03 06:18:49;;;;;;;8.88;7.90;;;;;;;;;;5075572;28;20230;-64
2021/05/03 06:21:15;;;;;;;9.88;8.63;;;;;;;;;;5075656;28;20283;-64
2021/05/03 06:23:42;;;;;;;10.63;8.60;;;;;;;;;;5075401;28;20564;-64
2021/05/03 06:26:09;;;;;;;10.57;8.75;;;;;;;;;;5075385;28;20198;-64
2021/05/03 06:28:35;;;;;;;10.40;7.68;;;;;;;;;;5075315;28;20196;-64
2021/05/03 06:31:02;;;;;;;10.52;8.23;;;;;;;;;;5073780;28;20576;-64
2021/05/03 06:33:29;;;;;;;12.35;8.25;;;;;;;;;;5075089;28;20183;-64
2021/05/03 06:35:56;;;;;;;18.73;7.72;;;;;;;;;;5075065;28;20246;-64
2021/05/03 06:38:23;;;;;;;9.25;7.53;;;;;;;;;;5074919;28;20219;-64
2021/05/03 06:40:50;;;;;;;20.00;7.70;;;;;;;;;;5073564;28;20224;-64
2021/05/03 06:43:17;;;;;;;16.02;7.25;;;;;;;;;;5074833;28;20196;-64
2021/05/03 06:45:43;;;;;;;19.73;9.07;;;;;;;;;;5074760;28;20188;-64
2021/05/03 06:48:10;;;;;;;27.55;9.50;;;;;;;;;;5074756;28;20214;-64
2021/05/03 06:50:40;;;;;;;9.73;7.32;;;;;;;;;;5074992;28;20674;-64
2021/05/03 06:53:06;;;;;;;8.85;7.95;;;;;;;;;;5074577;28;20239;-64
2021/05/03 06:55:33;;;;;;;10.25;8.10;;;;;;;;;;5073245;28;20214;-64
2021/05/03 06:58:00;;;;;;;11.35;7.80;;;;;;;;;;5073192;28;20227;-65
2021/05/03 07:00:26;;;;;;;11.52;6.60;;;;;;;;;;5074277;28;20275;-65
2021/05/03 07:02:53;;;;;;;8.20;7.40;;;;;;;;;;5074444;28;20192;-64
2021/05/03 07:05:20;;;;;;;18.58;7.35;;;;;;;;;;5073197;28;20683;-64
2021/05/03 07:07:47;;;;;;;9.10;6.97;;;;;;;;;;5074605;28;20208;-64
2021/05/03 07:10:14;;;;;;;7.70;7.00;;;;;;;;;;5074355;28;20196;-65
2021/05/03 07:12:48;;;;;;;22.40;8.15;;;;;;;;;;5074128;28;20212;-63
2021/05/03 07:15:16;;;;;;;82.53;10.77;;;;;;;;;;5074380;28;20689;-63
2021/05/03 07:17:43;;;;;;;7.78;7.00;;;;;;;;;;5074119;28;20228;-63
2021/05/03 07:20:10;;;;;;;7.90;7.10;;;;;;;;;;5074049;28;20195;-65
2021/05/03 07:22:37;;;;;;;8.85;7.47;;;;;;;;;;5074085;28;20548;-64
2021/05/03 07:25:05;;;;;;;7.55;6.85;;;;;;;;;;5073166;28;20227;-64
2021/05/03 07:27:32;;;;;;;7.65;6.95;;;;;;;;;;5074492;28;20279;-64
2021/05/03 07:29:59;;;;;;;25.73;8.48;;;;;;;;;;5074170;28;20211;-64
2021/05/03 07:32:25;;;;;;;9.57;7.72;;;;;;;;;;5074233;28;20191;-64
2021/05/03 07:34:52;;;;;;;10.95;7.85;;;;;;;;;;5074185;28;20203;-63
2021/05/03 07:37:19;;;;;;;8.15;7.05;;;;;;;;;;5073894;28;20207;-64
2021/05/03 07:39:45;;;;;;;12.25;8.07;;;;;;;;;;5073719;28;20192;-64
2021/05/03 07:42:12;;;;;;;19.08;8.18;;;;;;;;;;5073590;28;20206;-63
2021/05/03 07:44:39;;;;;;;7.93;7.13;;;;;;;;;;5073698;28;20245;-63
2021/05/03 07:47:05;;;;;;;10.82;7.63;;;;;;;;;;5074106;28;20282;-63
2021/05/03 07:49:33;;;;;;;9.00;8.07;;;;;;;;;;5073654;28;20200;-63
2021/05/03 07:51:59;;;;;;;8.18;7.38;;;;;;;;;;5073880;28;20239;-64
2021/05/03 07:54:26;;;;;;;9.48;7.63;;;;;;;;;;5073839;28;20180;-64
2021/05/03 07:56:53;;;;;;;7.72;7.03;;;;;;;;;;5073801;28;20284;-64
2021/05/03 07:59:20;;;;;;;8.55;7.65;;;;;;;;;;5073927;28;20671;-64
2021/05/03 08:01:46;;;;;;;7.05;6.18;;;;;;;;;;5073579;28;20195;-64
2021/05/03 08:04:13;;;;;;;8.00;6.90;;;;;;;;;;5074069;28;20207;-64
2021/05/03 08:06:39;;;;;;;7.47;6.78;;;;;;;;;;5073718;28;20207;-64
2021/05/03 08:09:06;;;;;;;8.27;6.82;;;;;;;;;;5073750;28;20290;-64
2021/05/03 08:11:33;;;;;;;8.07;7.15;;;;;;;;;;5072382;28;20208;-64
2021/05/03 08:14:01;;;;;;;8.38;7.53;;;;;;;;;;5073676;28;20196;-64
2021/05/03 08:16:29;;;;;;;8.02;7.28;;;;;;;;;;5077065;28;20279;-64
2021/05/03 08:18:56;;;;;;;8.00;7.20;;;;;;;;;;5078383;28;20248;-65
2021/05/03 08:21:23;;;;;;;7.72;6.95;;;;;;;;;;5072070;28;20196;-64
2021/05/03 08:23:50;;;;;;;10.20;9.10;;;;;;;;;;5073237;28;20216;-65
2021/05/03 08:26:16;;;;;;;8.70;7.78;;;;;;;;;;5073040;28;20194;-64
2021/05/03 08:28:47;;;;;;;7.45;6.70;;;;;;;;;;5073294;28;20202;-64
2021/05/03 08:31:14;;;;;;;9.52;8.63;;;;;;;;;;5073501;28;20242;-64
2021/05/03 08:33:41;;;;;;;8.02;7.22;;;;;;;;;;5073400;28;20196;-64
2021/05/03 08:36:08;;;;;;;9.07;6.63;;;;;;;;;;5072401;28;20200;-63
2021/05/03 08:38:35;;;;;;;7.60;6.20;;;;;;;;;;5073406;28;20570;-65
2021/05/03 08:41:03;;;;;;;7.90;7.13;;;;;;;;;;5073065;28;20299;-64
2021/05/03 08:43:32;;;;;;;8.98;6.75;;;;;;;;;;5072235;28;20624;-65
2021/05/03 08:45:59;;;;;;;7.88;7.13;;;;;;;;;;5073783;28;20191;-64
2021/05/03 08:53:44;;;;;;;7.88;7.07;;;;;;;;;;5072850;28;20232;-64
2021/05/03 08:56:11;;;;;;;7.75;7.05;;;;;;;;;;5071688;28;20208;-64
2021/05/03 08:58:39;;;;;;;9.25;6.95;;;;;;;;;;5072963;28;20235;-64
2021/05/03 09:01:06;;;;;;;7.45;6.80;;;;;;;;;;5073514;28;20206;-64
2021/05/03 09:03:34;;;;;;;10.27;6.93;;;;;;;;;;5072784;28;20203;-64
2021/05/03 09:06:05;;;;;;;6.70;6.00;;;;;;;;;;5072671;28;20212;-64
2021/05/03 09:08:32;;;;;;;10.70;6.18;;;;;;;;;;5072654;28;20218;-64
2021/05/03 09:10:59;;;;;;;7.10;6.35;;;;;;;;;;5073090;28;20207;-64
2021/05/03 09:13:36;;;;;;;11.75;6.70;;;;;;;;;;5072712;28;20210;-64
2021/05/03 09:16:12;;;;;;;9.95;6.80;;;;;;;;;;5072896;28;20243;-64
2021/05/03 09:18:42;;;;;;;5.90;5.50;;;;;;;;;;5071562;28;20602;-64
2021/05/03 09:21:22;;;;;;;6.28;5.60;;;;;;;;;;5072614;28;20184;-64
2021/05/03 09:24:13;;;;;;;9.67;6.83;;;;;;;;;;5072633;28;20184;-64
2021/05/03 09:26:41;;;;;;;7.88;7.10;;;;;;;;;;5072815;28;20672;-64
2021/05/03 09:29:28;;;;;;;6.37;5.83;;;;;;;;;;5072402;28;20196;-64
2021/05/03 09:31:57;;;;;;;6.95;6.00;;;;;;;;;;5072723;28;20634;-64
2021/05/03 09:34:28;;;;;;;5.63;5.10;;;;;;;;;;5072521;28;20640;-64
2021/05/03 09:37:15;;;;;;;6.57;5.63;;;;;;;;;;5074830;28;20762;-64
2021/05/03 09:39:42;;;;;;;7.23;6.60;;;;;;;;;;5076102;28;21032;-64
2021/05/03 09:42:09;;;;;;;6.33;5.73;;;;;;;;;;5076298;28;20576;-63
2021/05/03 09:44:36;;;;;;;9.00;5.33;;;;;;;;;;5076044;28;20598;-63
2021/05/03 09:47:03;;;;;;;9.30;6.57;;;;;;;;;;5076019;28;21170;-64
2021/05/03 09:49:29;;;;;;;6.10;5.50;;;;;;;;;;5076176;28;20594;-63
2021/05/03 09:51:59;;;;;;;6.70;6.00;;;;;;;;;;5075988;28;20643;-64
2021/05/03 09:54:33;;;;;;;6.37;5.90;;;;;;;;;;5075782;28;21161;-63
2021/05/03 09:57:05;;;;;;;8.50;6.40;;;;;;;;;;5076096;28;20635;-63
2021/05/03 09:59:39;;;;;;;6.18;5.53;;;;;;;;;;5076092;28;20665;-64
2021/05/03 10:02:19;;;;;;;6.75;6.05;;;;;;;;;;5076100;28;20283;-64
2021/05/03 10:04:49;;;;;;;8.50;5.97;;;;;;;;;;5076145;28;20559;-64
2021/05/03 10:07:20;;;;;;;7.33;5.53;;;;;;;;;;5075647;28;21044;-64
2021/05/03 10:09:51;;;;;;;7.27;5.50;;;;;;;;;;5080631;28;20685;-67
2021/05/03 10:12:18;;;;;;;5.33;4.90;;;;;;;;;;5083403;28;20624;-67
2021/05/03 10:14:45;;;;;;;5.63;4.27;;;;;;;;;;5081741;28;20626;-66
2021/05/03 10:17:13;;;;;;;5.70;5.20;;;;;;;;;;5081041;28;20629;-67
2021/05/03 10:19:40;;;;;;;5.13;4.10;;;;;;;;;;5080428;28;20650;-67
2021/05/03 10:22:07;;;;;;;4.73;4.33;;;;;;;;;;5082288;28;20605;-66
2021/05/03 10:24:34;;;;;;;7.40;4.30;;;;;;;;;;5082082;28;20960;-66
2021/05/03 10:27:01;;;;;;;5.10;4.60;;;;;;;;;;5083364;28;20597;-66
2021/05/03 10:29:43;;;;;;;4.07;3.77;;;;;;;;;;5081511;28;20628;-66
2021/05/03 10:32:12;;;;;;;5.00;4.10;;;;;;;;;;5088921;28;20557;-66
2021/05/03 10:34:46;;;;;;;5.13;3.97;;;;;;;;;;5084899;28;21164;-66
2021/05/03 10:37:28;;;;;;;4.60;3.83;;;;;;;;;;5077570;28;21156;-66
2021/05/03 10:39:54;;;;;;;4.17;3.77;;;;;;;;;;5076100;28;20661;-66
2021/05/03 10:42:21;;;;;;;5.07;4.10;;;;;;;;;;5077822;28;20608;-66
2021/05/03 10:45:09;;;;;;;4.47;3.70;;;;;;;;;;5077282;28;20613;-66
2021/05/03 10:47:41;;;;;;;3.57;3.30;;;;;;;;;;5076986;28;20625;-66
2021/05/03 10:50:31;;;;;;;4.10;3.57;;;;;;;;;;5077765;28;20644;-66
2021/05/03 10:53:17;;;;;;;3.97;3.50;;;;;;;;;;5077856;28;20642;-66
2021/05/03 10:55:50;;;;;;;3.57;3.30;;;;;;;;;;5078816;28;20605;-64
2021/05/03 10:58:17;;;;;;;4.20;3.73;;;;;;;;;;5078726;28;20743;-65
2021/05/03 11:00:55;;;;;;;3.83;3.33;;;;;;;;;;5078940;28;20573;-65
2021/05/03 11:03:42;;;;;;;4.70;4.30;;;;;;;;;;5077500;28;20673;-65
2021/05/03 11:06:09;;;;;;;3.73;3.27;;;;;;;;;;5077135;28;20602;-66
2021/05/03 11:08:36;;;;;;;3.10;2.90;;;;;;;;;;5077086;28;20614;-66
2021/05/03 11:11:04;;;;;;;3.70;3.40;;;;;;;;;;5076238;28;20624;-65
2021/05/03 11:13:46;;;;;;;5.60;5.20;;;;;;;;;;5077113;28;20667;-65
2021/05/03 11:16:33;;;;;;;4.77;3.40;;;;;;;;;;5077238;28;20622;-65
2021/05/03 11:19:19;;;;;;;3.83;3.50;;;;;;;;;;5075643;28;20681;-66
2021/05/03 11:21:48;;;;;;;3.40;3.20;;;;;;;;;;5074906;28;20590;-66
2021/05/03 11:24:16;;;;;;;3.93;3.47;;;;;;;;;;5074822;28;20606;-66
2021/05/03 11:26:54;;;;;;;3.67;3.43;;;;;;;;;;5074743;28;20618;-67
2021/05/03 11:29:24;;;;;;;3.03;2.83;;;;;;;;;;5076139;28;20621;-67
2021/05/03 11:31:51;;;;;;;3.20;3.00;;;;;;;;;;5074921;28;20625;-67
2021/05/03 11:34:27;;;;;;;3.60;2.90;;;;;;;;;;5075323;28;20590;-67
2021/05/03 11:37:14;;;;;;;3.47;3.20;;;;;;;;;;5074747;28;20708;-66
2021/05/03 11:39:57;;;;;;;3.50;3.20;;;;;;;;;;5074421;28;21196;-65
2021/05/03 11:44:57;;;;;;;5.37;3.17;;;;;;;;;;5074544;28;20569;-65
2021/05/03 11:47:31;;;;;;;3.23;3.03;;;;;;;;;;5074452;28;20620;-66
2021/05/03 11:49:58;;;;;;;5.20;3.53;;;;;;;;;;5074113;28;20625;-66
2021/05/03 11:52:26;;;;;;;2.70;2.50;;;;;;;;;;5074305;28;20634;-65
2021/05/03 11:54:54;;;;;;;3.07;2.87;;;;;;;;;;5074329;28;20626;-66
2021/05/03 11:57:20;;;;;;;2.60;2.40;;;;;;;;;;5074388;28;20625;-66
2021/05/03 11:59:58;;;;;;;6.00;3.03;;;;;;;;;;5072985;28;20654;-66
2021/05/03 12:02:26;;;;;;;3.93;3.47;;;;;;;;;;5074125;28;20621;-66
2021/05/03 12:04:53;;;;;;;3.53;3.07;;;;;;;;;;5073631;28;20632;-66
2021/05/03 12:07:22;;;;;;;7.63;3.40;;;;;;;;;;5074140;28;20977;-66
2021/05/03 12:09:59;;;;;;;2.90;2.63;;;;;;;;;;5075346;28;21330;-66
2021/05/03 12:12:31;;;;;;;3.27;2.97;;;;;;;;;;5076744;28;20996;-65
2021/05/03 12:14:58;;;;;;;3.37;3.07;;;;;;;;;;5077036;28;20586;-65
2021/05/03 12:17:26;;;;;;;2.50;2.30;;;;;;;;;;5075915;28;20645;-66
2021/05/03 12:19:54;;;;;;;3.10;2.80;;;;;;;;;;5073932;28;20660;-66
2021/05/03 12:22:22;;;;;;;2.97;2.77;;;;;;;;;;5056136;28;20717;-65
2021/05/03 12:24:50;;;;;;;2.23;2.13;;;;;;;;;;5073816;28;20708;-66
2021/05/03 12:27:16;;;;;;;3.13;2.93;;;;;;;;;;5073940;28;20590;-66
2021/05/03 12:29:47;;;;;;;3.60;2.57;;;;;;;;;;5072500;28;20634;-66
2021/05/03 12:32:15;;;;;;;2.53;2.40;;;;;;;;;;5073468;28;20669;-65
2021/05/03 12:34:43;;;;;;;3.70;2.43;;;;;;;;;;5073437;28;20621;-66
2021/05/03 12:37:11;;;;;;;1.80;1.70;;;;;;;;;;5074248;28;21140;-66
2021/05/03 12:39:41;;;;;;;2.47;2.27;;;;;;;;;;5074957;28;20640;-65
2021/05/03 12:42:12;;;;;;;3.00;2.80;;;;;;;;;;5073676;28;21287;-66
2021/05/03 12:44:40;;;;;;;2.40;2.30;;;;;;;;;;5073506;28;21145;-66
2021/05/03 12:47:17;;;;;;;3.20;2.30;;;;;;;;;;5073597;28;20614;-66
2021/05/03 12:49:53;;;;;;;3.00;2.50;;;;;;;;;;5074040;28;20625;-66
2021/05/03 12:52:33;;;;;;;3.30;2.90;;;;;;;;;;5073695;28;20753;-66
2021/05/03 12:55:08;;;;;;;2.43;2.33;;;;;;;;;;5073570;28;20628;-66
2021/05/03 12:58:11;;;;;;;2.60;2.40;;;;;;;;;;5073293;28;21151;-65
2021/05/03 13:01:29;;;;;;;3.80;2.27;;;;;;;;;;5072977;28;20664;-66
2021/05/03 13:03:33;;;;;;;1.87;1.77;;;;;;;;;;5073162;28;20640;-65
2021/05/03 13:29:02;;;;;;;1.70;1.60;;;;;;;;;;5077110;28;20544;-65
2021/05/03 13:31:29;;;;;;;2.67;2.20;;;;;;;;;;5077162;28;20644;-65
2021/05/03 13:33:56;;;;;;;4.33;2.47;;;;;;;;;;5077083;28;20960;-66
2021/05/03 13:36:23;;;;;;;3.33;2.13;;;;;;;;;;5076984;28;20684;-66
2021/05/03 13:38:50;;;;;;;2.17;2.07;;;;;;;;;;5077092;28;20638;-66
2021/05/03 13:41:17;;;;;;;3.20;2.07;;;;;;;;;;5076552;28;20621;-66
2021/05/03 13:43:44;;;;;;;3.80;2.07;;;;;;;;;;5076629;28;20629;-66
2021/05/03 13:46:10;;;;;;;2.70;2.17;;;;;;;;;;5076664;28;20597;-66
2021/05/03 13:48:38;;;;;;;2.10;2.00;;;;;;;;;;5076773;28;20708;-66
2021/05/03 13:51:07;;;;;;;1.90;1.80;;;;;;;;;;5076251;28;20617;-66
2021/05/03 13:53:35;;;;;;;2.50;2.40;;;;;;;;;;5076471;28;20664;-66
2021/05/03 13:56:01;;;;;;;2.07;1.90;;;;;;;;;;5076399;28;20641;-66
2021/05/03 13:58:28;;;;;;;2.50;2.30;;;;;;;;;;5076350;28;20663;-66
2021/05/03 14:00:55;;;;;;;2.50;2.40;;;;;;;;;;5076366;28;20616;-66
2021/05/03 14:03:21;;;;;;;4.00;2.40;;;;;;;;;;5076924;28;20703;-66
2021/05/03 14:05:48;;;;;;;3.00;2.20;;;;;;;;;;5076676;28;20705;-66
2021/05/03 14:08:15;;;;;;;2.00;1.90;;;;;;;;;;5078142;28;21149;-66
2021/05/03 14:10:41;;;;;;;2.00;1.90;;;;;;;;;;5075876;28;20733;-66
2021/05/03 14:13:08;;;;;;;3.80;2.10;;;;;;;;;;5077431;28;20628;-66
2021/05/03 14:15:37;;;;;;;2.50;2.00;;;;;;;;;;5076841;28;20614;-66
2021/05/03 14:18:04;;;;;;;2.13;2.03;;;;;;;;;;5076339;28;20724;-66
2021/05/03 14:20:31;;;;;;;2.10;2.00;;;;;;;;;;5075110;28;20748;-66
2021/05/03 14:22:58;;;;;;;2.40;2.20;;;;;;;;;;5074609;28;20632;-65
2021/05/03 14:25:28;;;;;;;2.10;1.97;;;;;;;;;;5075478;28;20628;-66
2021/05/03 14:27:55;;;;;;;2.50;2.40;;;;;;;;;;5075257;28;20684;-66
2021/05/03 14:30:25;;;;;;;2.50;2.40;;;;;;;;;;5075352;28;20982;-66
2021/05/03 14:33:02;;;;;;;2.37;2.27;;;;;;;;;;5075457;28;20582;-66
2021/05/03 14:35:29;;;;;;;2.03;1.93;;;;;;;;;;5061432;28;20982;-66
2021/05/03 14:37:55;;;;;;;4.03;2.40;;;;;;;;;;5055613;28;20631;-66
2021/05/03 14:40:23;;;;;;;2.73;1.93;;;;;;;;;;5067479;28;20680;-65
2021/05/03 14:42:55;;;;;;;1.97;1.87;;;;;;;;;;5075686;28;20622;-66
2021/05/03 14:45:22;;;;;;;1.90;1.80;;;;;;;;;;5075974;28;20625;-65
2021/05/03 14:53:33;;;;;;;2.40;2.20;;;;;;;;;;5066588;28;20653;-67
2021/05/03 14:56:00;;;;;;;2.50;2.17;;;;;;;;;;5072289;28;20606;-67
2021/05/03 14:58:27;;;;;;;2.30;2.07;;;;;;;;;;5072863;28;20973;-65
2021/05/03 15:00:54;;;;;;;2.23;2.13;;;;;;;;;;5076048;28;20684;-66
2021/05/03 15:03:20;;;;;;;3.03;1.77;;;;;;;;;;5076080;28;20713;-65
2021/05/03 15:05:52;;;;;;;4.27;2.90;;;;;;;;;;5067034;28;20615;-65
2021/05/03 15:08:18;;;;;;;2.63;2.53;;;;;;;;;;5070540;28;20618;-66
2021/05/03 15:10:45;;;;;;;2.90;2.70;;;;;;;;;;5061686;28;21177;-66
2021/05/03 15:13:15;;;;;;;2.90;2.70;;;;;;;;;;5069328;28;20701;-66
2021/05/03 15:15:53;;;;;;;2.50;2.30;;;;;;;;;;5064383;28;20582;-66
2021/05/03 15:24:13;;;;;;;2.90;2.77;;;;;;;;;;5055820;28;20632;-67
2021/05/03 15:26:44;;;;;;;2.53;2.33;;;;;;;;;;5071671;28;20970;-65
2021/05/03 15:34:17;;;;;;;2.43;2.30;;;;;;;;;;5059979;28;20612;-66
2021/05/03 15:36:44;;;;;;;2.40;2.20;;;;;;;;;;5075920;28;20630;-66
2021/05/03 15:39:12;;;;;;;3.67;3.37;;;;;;;;;;5075544;28;20657;-66
2021/05/03 15:41:38;;;;;;;3.30;3.00;;;;;;;;;;5074968;28;20638;-66
2021/05/03 15:44:13;;;;;;;2.80;2.60;;;;;;;;;;5074569;28;20594;-65
2021/05/03 15:46:40;;;;;;;3.50;3.20;;;;;;;;;;5074260;28;20624;-66
2021/05/03 15:49:07;;;;;;;2.83;2.50;;;;;;;;;;5075088;28;20601;-67